SAS27A ENKB-ENBR
Flight info
| Callsign | SAS27A |
|---|---|
| Flight time | 0h 36m |
| Altitude | 28000 |
| Route | TUTOP DCT NIDGI |
| Aircraft | A320/M-SDE3FGHIRWY/LB1 |
Departure
| Time | 2026-04-25 17:24 |
|---|---|
| Airport | Kristiansund Airport, Kvernberget (ENKB) |
Arrival
| Time | 2026-04-25 18:00 |
|---|---|
| Airport | Bergen Airport, Flesland (ENBR) |
| Time | Latitude | Longitude | Altitude | Speed | Heading |
|---|---|---|---|---|---|
| 2026-04-25 17:24 | 63.10677 | 7.79126 | 1246 ft | 166 kts | 257° |
| 2026-04-25 17:24 | 63.10302 | 7.76678 | 1954 ft | 171 kts | 257° |
| 2026-04-25 17:25 | 63.09902 | 7.74026 | 2227 ft | 194 kts | 256° |
| 2026-04-25 17:25 | 63.09450 | 7.71022 | 2525 ft | 218 kts | 256° |
| 2026-04-25 17:25 | 63.08941 | 7.67669 | 2952 ft | 241 kts | 256° |
| 2026-04-25 17:25 | 63.08390 | 7.64085 | 3709 ft | 251 kts | 255° |
| 2026-04-25 17:26 | 63.07818 | 7.60403 | 4622 ft | 256 kts | 255° |
| 2026-04-25 17:26 | 63.07235 | 7.56662 | 5539 ft | 260 kts | 255° |
| 2026-04-25 17:26 | 63.06645 | 7.52864 | 6431 ft | 263 kts | 255° |
| 2026-04-25 17:26 | 63.05885 | 7.49141 | 7278 ft | 271 kts | 242° |
| 2026-04-25 17:27 | 63.04675 | 7.45876 | 8106 ft | 280 kts | 226° |
| 2026-04-25 17:27 | 63.03198 | 7.43020 | 8950 ft | 284 kts | 225° |
| 2026-04-25 17:27 | 63.01704 | 7.40136 | 9783 ft | 287 kts | 225° |
| 2026-04-25 17:27 | 63.01218 | 7.39193 | 10040 ft | 289 kts | 225° |
| 2026-04-25 17:28 | 62.98594 | 7.34063 | 10674 ft | 319 kts | 226° |
| 2026-04-25 17:28 | 62.96901 | 7.30742 | 10840 ft | 341 kts | 225° |
| 2026-04-25 17:28 | 62.95093 | 7.27217 | 11323 ft | 351 kts | 226° |
| 2026-04-25 17:28 | 62.93245 | 7.23644 | 11921 ft | 357 kts | 226° |
| 2026-04-25 17:29 | 62.91355 | 7.20008 | 12552 ft | 362 kts | 226° |
| 2026-04-25 17:29 | 62.90091 | 7.17580 | 12959 ft | 366 kts | 226° |
| 2026-04-25 17:29 | 62.88153 | 7.13866 | 13557 ft | 372 kts | 227° |
| 2026-04-25 17:29 | 62.85540 | 7.08850 | 14322 ft | 379 kts | 228° |
| 2026-04-25 17:30 | 62.83532 | 7.05001 | 14855 ft | 385 kts | 228° |
| 2026-04-25 17:30 | 62.81520 | 7.01149 | 15353 ft | 390 kts | 229° |
| 2026-04-25 17:30 | 62.79461 | 6.97204 | 15865 ft | 395 kts | 229° |
| 2026-04-25 17:30 | 62.77384 | 6.93225 | 16367 ft | 401 kts | 230° |
| 2026-04-25 17:31 | 62.75955 | 6.90494 | 16712 ft | 404 kts | 230° |
| 2026-04-25 17:31 | 62.73853 | 6.86487 | 17225 ft | 410 kts | 230° |
| 2026-04-25 17:31 | 62.71688 | 6.82372 | 17815 ft | 416 kts | 230° |
| 2026-04-25 17:31 | 62.69489 | 6.78210 | 18374 ft | 422 kts | 231° |
| 2026-04-25 17:32 | 62.67258 | 6.73999 | 18868 ft | 426 kts | 231° |
| 2026-04-25 17:32 | 62.65005 | 6.69751 | 19357 ft | 430 kts | 231° |
| 2026-04-25 17:32 | 62.62752 | 6.65416 | 19894 ft | 433 kts | 233° |
| 2026-04-25 17:32 | 62.60508 | 6.61003 | 20432 ft | 437 kts | 233° |
| 2026-04-25 17:33 | 62.58246 | 6.56513 | 20960 ft | 440 kts | 234° |
| 2026-04-25 17:33 | 62.56004 | 6.52064 | 21458 ft | 444 kts | 234° |
| 2026-04-25 17:33 | 62.53697 | 6.47515 | 21935 ft | 448 kts | 234° |
| 2026-04-25 17:33 | 62.51373 | 6.42964 | 22422 ft | 451 kts | 234° |
| 2026-04-25 17:34 | 62.49036 | 6.38410 | 22886 ft | 454 kts | 234° |
| 2026-04-25 17:34 | 62.46670 | 6.33830 | 23346 ft | 457 kts | 234° |
| 2026-04-25 17:34 | 62.44293 | 6.29239 | 23785 ft | 460 kts | 234° |
| 2026-04-25 17:34 | 62.41924 | 6.24671 | 24147 ft | 463 kts | 234° |
| 2026-04-25 17:35 | 62.39510 | 6.20029 | 24508 ft | 466 kts | 234° |
| 2026-04-25 17:35 | 62.37081 | 6.15364 | 24885 ft | 468 kts | 234° |
| 2026-04-25 17:35 | 62.34638 | 6.10675 | 25223 ft | 471 kts | 234° |
| 2026-04-25 17:35 | 62.32185 | 6.05970 | 25567 ft | 473 kts | 234° |
| 2026-04-25 17:36 | 62.29720 | 6.01251 | 25902 ft | 475 kts | 233° |
| 2026-04-25 17:36 | 62.27239 | 5.96512 | 26241 ft | 478 kts | 233° |
| 2026-04-25 17:36 | 62.24773 | 5.91822 | 26583 ft | 480 kts | 233° |
| 2026-04-25 17:36 | 62.22266 | 5.87068 | 26918 ft | 482 kts | 233° |
| 2026-04-25 17:37 | 62.19742 | 5.82294 | 27259 ft | 485 kts | 233° |
| 2026-04-25 17:37 | 62.17195 | 5.77490 | 27617 ft | 487 kts | 233° |
| 2026-04-25 17:37 | 62.14647 | 5.72691 | 27974 ft | 489 kts | 233° |
| 2026-04-25 17:37 | 62.12083 | 5.67866 | 28155 ft | 491 kts | 233° |
| 2026-04-25 17:38 | 62.07820 | 5.59881 | 28180 ft | 489 kts | 232° |
| 2026-04-25 17:38 | 62.01783 | 5.48936 | 28188 ft | 497 kts | 226° |
| 2026-04-25 17:39 | 61.98793 | 5.45054 | 28189 ft | 510 kts | 216° |
| 2026-04-25 17:39 | 61.95489 | 5.42114 | 28186 ft | 520 kts | 206° |
| 2026-04-25 17:39 | 61.88604 | 5.37298 | 28187 ft | 520 kts | 206° |
| 2026-04-25 17:40 | 61.81745 | 5.32504 | 28180 ft | 519 kts | 206° |
| 2026-04-25 17:40 | 61.74900 | 5.27718 | 28168 ft | 518 kts | 206° |
| 2026-04-25 17:41 | 61.68048 | 5.22957 | 28165 ft | 517 kts | 205° |
| 2026-04-25 17:41 | 61.61211 | 5.18235 | 28161 ft | 517 kts | 205° |
| 2026-04-25 17:42 | 61.54379 | 5.13555 | 28163 ft | 516 kts | 205° |
| 2026-04-25 17:42 | 61.47599 | 5.08922 | 28161 ft | 515 kts | 205° |
| 2026-04-25 17:43 | 61.40782 | 5.04266 | 28166 ft | 515 kts | 205° |
| 2026-04-25 17:43 | 61.33977 | 4.99650 | 28131 ft | 514 kts | 205° |
| 2026-04-25 17:44 | 61.30568 | 4.97345 | 27859 ft | 514 kts | 205° |
| 2026-04-25 17:44 | 61.27161 | 4.95046 | 27586 ft | 512 kts | 205° |
| 2026-04-25 17:44 | 61.23822 | 4.92799 | 27323 ft | 510 kts | 205° |
| 2026-04-25 17:44 | 61.20446 | 4.90532 | 27059 ft | 507 kts | 205° |
| 2026-04-25 17:45 | 61.17090 | 4.88282 | 26797 ft | 505 kts | 205° |
| 2026-04-25 17:45 | 61.14876 | 4.86804 | 26635 ft | 504 kts | 205° |
| 2026-04-25 17:45 | 61.10413 | 4.83834 | 25794 ft | 504 kts | 205° |
| 2026-04-25 17:45 | 61.07029 | 4.81800 | 25083 ft | 507 kts | 198° |
| 2026-04-25 17:46 | 61.03516 | 4.80795 | 24406 ft | 512 kts | 187° |
| 2026-04-25 17:46 | 60.99953 | 4.80574 | 23736 ft | 511 kts | 186° |
| 2026-04-25 17:46 | 60.96411 | 4.80451 | 22964 ft | 509 kts | 181° |
| 2026-04-25 17:46 | 60.92891 | 4.81401 | 22120 ft | 512 kts | 171° |
| 2026-04-25 17:47 | 60.89404 | 4.82792 | 21430 ft | 507 kts | 171° |
| 2026-04-25 17:47 | 60.86002 | 4.84189 | 20734 ft | 503 kts | 171° |
| 2026-04-25 17:47 | 60.82584 | 4.85619 | 20042 ft | 499 kts | 170° |
| 2026-04-25 17:47 | 60.79196 | 4.87041 | 19363 ft | 495 kts | 171° |
| 2026-04-25 17:48 | 60.72484 | 4.89825 | 18027 ft | 488 kts | 171° |
| 2026-04-25 17:48 | 60.69195 | 4.91170 | 17428 ft | 477 kts | 171° |
| 2026-04-25 17:48 | 60.66000 | 4.92476 | 16834 ft | 458 kts | 171° |
| 2026-04-25 17:49 | 60.62940 | 4.93721 | 16264 ft | 440 kts | 171° |
| 2026-04-25 17:49 | 60.59974 | 4.94919 | 15707 ft | 429 kts | 171° |
| 2026-04-25 17:49 | 60.57097 | 4.96079 | 15149 ft | 423 kts | 170° |
| 2026-04-25 17:49 | 60.54222 | 4.97235 | 14598 ft | 417 kts | 170° |
| 2026-04-25 17:50 | 60.51403 | 4.98368 | 13796 ft | 409 kts | 170° |
| 2026-04-25 17:50 | 60.48634 | 4.99478 | 12930 ft | 402 kts | 170° |
| 2026-04-25 17:50 | 60.45909 | 5.00571 | 12112 ft | 394 kts | 169° |
| 2026-04-25 17:50 | 60.43259 | 5.01634 | 11680 ft | 386 kts | 169° |
| 2026-04-25 17:51 | 60.40621 | 5.02687 | 11415 ft | 386 kts | 169° |
| 2026-04-25 17:51 | 60.38010 | 5.03724 | 10950 ft | 383 kts | 169° |
| 2026-04-25 17:51 | 60.35404 | 5.04762 | 10422 ft | 378 kts | 169° |
| 2026-04-25 17:51 | 60.32842 | 5.05783 | 9893 ft | 371 kts | 169° |
| 2026-04-25 17:52 | 60.30359 | 5.06771 | 9317 ft | 357 kts | 169° |
| 2026-04-25 17:52 | 60.28763 | 5.07406 | 8950 ft | 349 kts | 169° |
| 2026-04-25 17:52 | 60.25627 | 5.08650 | 8190 ft | 336 kts | 169° |
| 2026-04-25 17:52 | 60.23394 | 5.09533 | 7611 ft | 328 kts | 169° |
| 2026-04-25 17:53 | 60.21139 | 5.10420 | 6766 ft | 331 kts | 168° |
| 2026-04-25 17:53 | 60.18934 | 5.11285 | 6530 ft | 310 kts | 168° |
| 2026-04-25 17:53 | 60.16890 | 5.12087 | 6387 ft | 289 kts | 168° |
| 2026-04-25 17:53 | 60.14958 | 5.12846 | 6086 ft | 277 kts | 168° |
| 2026-04-25 17:54 | 60.13108 | 5.13573 | 5724 ft | 263 kts | 168° |
| 2026-04-25 17:54 | 60.11379 | 5.14377 | 5307 ft | 245 kts | 154° |
| 2026-04-25 17:54 | 60.10047 | 5.16243 | 4900 ft | 228 kts | 123° |
| 2026-04-25 17:54 | 60.09346 | 5.18915 | 4477 ft | 214 kts | 96° |
| 2026-04-25 17:55 | 60.09280 | 5.21774 | 3964 ft | 201 kts | 71° |
| 2026-04-25 17:55 | 60.09765 | 5.24214 | 3770 ft | 177 kts | 49° |
| 2026-04-25 17:55 | 60.10564 | 5.25942 | 3667 ft | 165 kts | 31° |
| 2026-04-25 17:55 | 60.11568 | 5.26994 | 3543 ft | 162 kts | 14° |
| 2026-04-25 17:56 | 60.12666 | 5.27318 | 3363 ft | 160 kts | 358° |
| 2026-04-25 17:56 | 60.13769 | 5.27015 | 3165 ft | 161 kts | 352° |
| 2026-04-25 17:56 | 60.14870 | 5.26647 | 2946 ft | 160 kts | 352° |
| 2026-04-25 17:56 | 60.15968 | 5.26282 | 2721 ft | 159 kts | 352° |
| 2026-04-25 17:57 | 60.17019 | 5.25931 | 2541 ft | 147 kts | 352° |
| 2026-04-25 17:57 | 60.18004 | 5.25603 | 2320 ft | 138 kts | 351° |
| 2026-04-25 17:57 | 60.18942 | 5.25291 | 2115 ft | 133 kts | 350° |
| 2026-04-25 17:57 | 60.19239 | 5.25192 | 2056 ft | 131 kts | 350° |
| 2026-04-25 17:58 | 60.20709 | 5.24702 | 1757 ft | 127 kts | 350° |
| 2026-04-25 17:58 | 60.21584 | 5.24410 | 1570 ft | 127 kts | 350° |
| 2026-04-25 17:58 | 60.22452 | 5.24120 | 1389 ft | 126 kts | 350° |
| 2026-04-25 17:58 | 60.23316 | 5.23831 | 1209 ft | 126 kts | 350° |
| 2026-04-25 17:59 | 60.24182 | 5.23542 | 1022 ft | 126 kts | 349° |
| 2026-04-25 17:59 | 60.25050 | 5.23251 | 841 ft | 126 kts | 348° |
| 2026-04-25 17:59 | 60.25915 | 5.22962 | 670 ft | 125 kts | 348° |
| 2026-04-25 17:59 | 60.26775 | 5.22674 | 503 ft | 125 kts | 348° |
| 2026-04-25 18:00 | 60.27627 | 5.22388 | 332 ft | 126 kts | 347° |
| 2026-04-25 18:00 | 60.28485 | 5.22101 | 181 ft | 124 kts | 347° |
| 2026-04-25 18:00 | 60.29203 | 5.21857 | 159 ft | 76 kts | 351° |
| 2026-04-25 18:00 | 60.29575 | 5.21735 | 148 ft | 28 kts | 351° |
| 2026-04-25 18:01 | 60.29689 | 5.21726 | 146 ft | 13 kts | 27° |
| 2026-04-25 18:01 | 60.29720 | 5.21892 | 149 ft | 10 kts | 83° |
| 2026-04-25 18:01 | 60.29721 | 5.21904 | 149 ft | 0 kts | 83° |
| 2026-04-25 18:02 | 60.29721 | 5.21906 | 149 ft | 1 kts | 83° |
| 2026-04-25 18:02 | 60.29716 | 5.21983 | 149 ft | 8 kts | 118° |
| 2026-04-25 18:02 | 60.29657 | 5.22031 | 151 ft | 11 kts | 169° |
| 2026-04-25 18:03 | 60.29567 | 5.22062 | 154 ft | 14 kts | 171° |
| 2026-04-25 18:03 | 60.29469 | 5.22094 | 157 ft | 15 kts | 170° |
| 2026-04-25 18:03 | 60.29370 | 5.22129 | 161 ft | 14 kts | 171° |
| 2026-04-25 18:03 | 60.29268 | 5.22163 | 166 ft | 16 kts | 171° |
| 2026-04-25 18:04 | 60.29145 | 5.22204 | 172 ft | 20 kts | 169° |
| 2026-04-25 18:04 | 60.29001 | 5.22252 | 173 ft | 23 kts | 171° |
| 2026-04-25 18:04 | 60.28846 | 5.22307 | 171 ft | 23 kts | 170° |
| 2026-04-25 18:04 | 60.28721 | 5.22347 | 169 ft | 12 kts | 169° |
| 2026-04-25 18:05 | 60.28678 | 5.22474 | 171 ft | 12 kts | 114° |
| 2026-04-25 18:05 | 60.28676 | 5.22644 | 172 ft | 14 kts | 80° |
| 2026-04-25 18:05 | 60.28668 | 5.22750 | 172 ft | 8 kts | 138° |
| 2026-04-25 18:05 | 60.28649 | 5.22793 | 172 ft | 1 kts | 101° |
| 2026-04-25 18:06 | 60.28651 | 5.22800 | 172 ft | 0 kts | 79° |
| 2026-04-25 18:06 | 60.28654 | 5.22830 | 173 ft | 3 kts | 79° |
| 2026-04-25 18:06 | 60.28656 | 5.22857 | 174 ft | 1 kts | 79° |
| 2026-04-25 18:06 | 60.28657 | 5.22866 | 175 ft | 1 kts | 79° |
| 2026-04-25 18:07 | 60.28660 | 5.22894 | 176 ft | 2 kts | 79° |
| 2026-04-25 18:07 | 60.28661 | 5.22924 | 176 ft | 1 kts | 83° |
| 2026-04-25 18:07 | 60.28662 | 5.22928 | 176 ft | 0 kts | 83° |